RPLB METAR and TAF | Updated Today

RPLB METAR

Subic Bay International Airport

Observation time: 16 min. ago

RPLB 080600Z 06017G35KT 9999 FEW020 32/15 Q1012 NOSIG RMK A2988

Need help? Read our tutorial on how to read METARs or read the parsed version below.

Subic Bay International Airport (RPLB) METAR

  • Weather conditions on Wed, 08 Dec 2021 06:00:00 +0000 (16 min. ago):
  • Present conditions: Dry
  • Clouds: A few at 610 meters
  • Visibility: Greater than 10 km
  • Wind: 60 degrees at 17 knots
  • Temperature: 32 celsius
  • Dew point: 15 celsius
  • Pressure: 1012 millibars
  • Remarks: A2988


Useful to know...

RPLB TAF

Subic Bay International Airport

TAF RPLB 080500Z 0806/0906 06010KT 9999 FEW020 SCT300 TX31/0806Z TN21/0820Z TEMPO 0806/0812 05015G25KT SCT020 BKN080
Observation time: 76 min. ago
Need help? Read our tutorial on how to read TAFs or read the parsed version below.

Parsed version of TAF for Subic Bay International Airport (RPLB)

  • From 08 December at 06:00 UTC, to day 09 of the month at 06:00 UTC
  • Clouds: A few at 610 meters; scattered at 9144 meters
  • Visibility: Greater than 10 km
  • Wind: 60 degrees at 10
  • Expected to arise temporarily, from 08 December at 06:00 UTC, to day 08 of the month at 12:00 UTC
  • Clouds: Scattered at 610 meters; broken sky at 2438 meters
  • Wind: 50 degrees at 15